Time;durP1;ratioP1;P1;durP2;ratioP2;P2;SDS_P1;SDS_P2;PMS_P1;PMS_P2;Temp;Humidity;BMP_temperature;BMP_pressure;BME280_temperature;BME280_humidity;BME280_pressure;Samples;Min_cycle;Max_cycle;Signal;HPM_P1;HPM_P2
2021/12/06 00:01:12;;;;;;;6.25;1.60;;;3.90;93.80;;;;;;5056864;28;20047;-75
2021/12/06 00:03:41;;;;;;;2.67;1.40;;;3.80;93.70;;;;;;5048472;28;20044;-75
2021/12/06 00:06:07;;;;;;;2.60;1.10;;;3.90;93.40;;;;;;5049323;28;20079;-75
2021/12/06 00:08:33;;;;;;;2.97;1.25;;;3.90;93.70;;;;;;5061136;28;20031;-74
2021/12/06 00:11:01;;;;;;;4.47;2.50;;;3.90;93.40;;;;;;5058013;28;20037;-74
2021/12/06 00:13:28;;;;;;;4.25;2.25;;;3.90;93.30;;;;;;5054415;28;20078;-75
2021/12/06 00:15:55;;;;;;;2.60;1.20;;;3.90;93.10;;;;;;5052291;28;20383;-74
2021/12/06 00:18:20;;;;;;;2.47;1.10;;;3.90;93.10;;;;;;5052682;28;20017;-75
2021/12/06 00:20:46;;;;;;;3.08;1.35;;;4.00;92.70;;;;;;5053477;28;20111;-75
2021/12/06 00:23:12;;;;;;;2.70;1.30;;;3.90;93.10;;;;;;5052761;28;20090;-75
2021/12/06 00:25:38;;;;;;;3.42;1.45;;;3.70;93.20;;;;;;5052343;28;20033;-74
2021/12/06 00:28:04;;;;;;;2.60;1.42;;;3.80;93.00;;;;;;5052575;28;20033;-74
2021/12/06 00:30:30;;;;;;;4.10;1.23;;;3.70;93.60;;;;;;5052519;28;20036;-75
2021/12/06 00:32:56;;;;;;;4.20;1.40;;;3.70;93.90;;;;;;5057664;28;20021;-75
2021/12/06 00:35:24;;;;;;;2.90;1.10;;;3.70;93.50;;;;;;5053152;28;20036;-74
2021/12/06 00:38:00;;;;;;;1.58;0.80;;;3.80;92.70;;;;;;5063946;28;20031;-75
2021/12/06 00:40:32;;;;;;;2.78;1.13;;;3.80;92.30;;;;;;5052091;28;20098;-74
2021/12/06 00:42:58;;;;;;;2.47;0.80;;;3.90;91.90;;;;;;5053625;28;20539;-75
2021/12/06 00:45:24;;;;;;;2.00;0.82;;;3.90;91.80;;;;;;5064201;28;20162;-74
2021/12/06 00:47:50;;;;;;;2.13;0.90;;;4.00;91.50;;;;;;5061013;28;20045;-74
2021/12/06 00:50:19;;;;;;;3.10;1.30;;;3.90;91.30;;;;;;5063605;28;20435;-74
2021/12/06 00:52:46;;;;;;;3.83;1.20;;;4.00;91.30;;;;;;5052584;28;20167;-74
2021/12/06 00:55:13;;;;;;;2.85;0.77;;;4.00;91.50;;;;;;5054553;28;20020;-74
2021/12/06 00:57:39;;;;;;;3.05;1.02;;;3.90;91.80;;;;;;5053911;28;20032;-74
2021/12/06 01:00:33;;;;;;;1.95;0.93;;;4.00;91.40;;;;;;5052103;28;20040;-74
2021/12/06 01:03:00;;;;;;;2.45;0.90;;;3.90;91.70;;;;;;5052053;28;20020;-74
2021/12/06 01:05:26;;;;;;;1.63;0.77;;;3.90;91.80;;;;;;5055380;28;20104;-75
2021/12/06 01:07:54;;;;;;;2.30;0.90;;;3.90;91.90;;;;;;5055879;28;20175;-75
2021/12/06 01:10:21;;;;;;;2.72;1.00;;;3.80;91.60;;;;;;5053296;28;20571;-74
2021/12/06 01:12:47;;;;;;;2.15;0.98;;;3.90;91.40;;;;;;5060612;28;20079;-74
2021/12/06 01:15:13;;;;;;;3.80;1.40;;;3.80;91.80;;;;;;5055066;28;20025;-74
2021/12/06 01:17:39;;;;;;;2.10;0.90;;;3.90;91.00;;;;;;5058366;28;20028;-75
2021/12/06 01:20:09;;;;;;;3.00;0.77;;;3.90;91.20;;;;;;5060244;28;20380;-74
2021/12/06 01:22:50;;;;;;;2.60;0.93;;;4.00;91.00;;;;;;5059750;28;20701;-74
2021/12/06 01:41:17;;;;;;;2.00;0.80;;;3.70;91.70;;;;;;5056551;28;20048;-74
2021/12/06 01:44:03;;;;;;;2.30;1.00;;;3.50;92.90;;;;;;5056223;28;20029;-74
2021/12/06 01:46:31;;;;;;;1.83;0.88;;;3.50;92.50;;;;;;5075469;28;20044;-74
2021/12/06 01:48:57;;;;;;;3.15;1.30;;;3.40;92.70;;;;;;5054975;28;20029;-75
2021/12/06 01:51:23;;;;;;;2.20;1.05;;;3.30;92.30;;;;;;5060385;28;20478;-75
2021/12/06 01:53:48;;;;;;;2.60;1.15;;;3.40;92.80;;;;;;5070906;28;20027;-75
2021/12/06 01:56:15;;;;;;;2.17;0.82;;;3.40;93.00;;;;;;5053446;28;20028;-74
2021/12/06 01:58:43;;;;;;;3.13;0.80;;;3.40;92.40;;;;;;5056616;28;20111;-75
2021/12/06 02:01:09;;;;;;;2.65;0.98;;;3.40;92.00;;;;;;5066896;28;20059;-74
2021/12/06 02:03:35;;;;;;;4.50;0.82;;;3.50;91.90;;;;;;5051062;28;20033;-74
2021/12/06 02:06:01;;;;;;;3.63;1.30;;;3.40;92.80;;;;;;5054946;28;20028;-75
2021/12/06 02:08:27;;;;;;;1.52;0.80;;;3.20;93.10;;;;;;5054291;28;20029;-74
2021/12/06 02:10:59;;;;;;;1.80;0.80;;;3.50;91.60;;;;;;5052038;28;20089;-74
2021/12/06 02:13:30;;;;;;;2.67;1.05;;;3.50;91.40;;;;;;5069341;28;20036;-75
2021/12/06 02:15:56;;;;;;;1.50;0.50;;;3.40;91.50;;;;;;5053807;28;20387;-74
2021/12/06 02:21:19;;;;;;;1.48;0.93;;;3.50;91.20;;;;;;5058540;28;20035;-74
2021/12/06 02:23:47;;;;;;;2.55;0.90;;;3.50;91.20;;;;;;5060054;28;20040;-74
2021/12/06 02:26:14;;;;;;;1.92;0.82;;;3.50;91.30;;;;;;5049992;28;20032;-74
2021/12/06 02:28:40;;;;;;;4.95;1.15;;;3.40;91.60;;;;;;5058943;28;20411;-74
2021/12/06 02:31:06;;;;;;;2.72;0.93;;;3.20;91.90;;;;;;5049843;28;20089;-75
2021/12/06 02:33:32;;;;;;;1.58;0.85;;;3.30;92.00;;;;;;5070543;28;20476;-74
2021/12/06 02:35:58;;;;;;;1.88;1.02;;;3.30;91.70;;;;;;5059231;28;20368;-74
2021/12/06 02:38:24;;;;;;;1.15;0.55;;;3.30;91.70;;;;;;5051677;28;20057;-74
2021/12/06 02:40:50;;;;;;;1.90;0.95;;;3.20;91.90;;;;;;5065152;28;20039;-74
2021/12/06 02:43:16;;;;;;;2.67;1.10;;;3.20;92.00;;;;;;5056242;28;20502;-74
2021/12/06 02:45:42;;;;;;;3.90;1.17;;;3.30;91.50;;;;;;5054063;28;20055;-74
2021/12/06 02:48:11;;;;;;;1.08;0.50;;;3.30;91.70;;;;;;5058670;28;20045;-74
2021/12/06 02:50:47;;;;;;;3.70;0.80;;;3.20;91.80;;;;;;5064445;28;20104;-74
2021/12/06 02:53:13;;;;;;;1.65;0.70;;;3.20;91.80;;;;;;5054959;28;20590;-74
2021/12/06 02:55:40;;;;;;;2.92;0.88;;;3.20;91.80;;;;;;5054461;28;20096;-74
2021/12/06 02:58:16;;;;;;;2.13;0.77;;;3.10;91.80;;;;;;5067745;28;20020;-74
2021/12/06 03:00:49;;;;;;;1.85;0.63;;;3.30;91.40;;;;;;5060906;28;20025;-74
2021/12/06 03:03:18;;;;;;;1.23;0.60;;;3.20;91.10;;;;;;5058645;28;20556;-74
2021/12/06 03:05:44;;;;;;;3.10;0.68;;;3.20;91.10;;;;;;5052998;28;20025;-74
2021/12/06 03:08:10;;;;;;;2.95;0.90;;;3.20;91.10;;;;;;5054153;28;20104;-74
2021/12/06 03:10:36;;;;;;;2.03;0.80;;;3.20;91.30;;;;;;5055342;28;20111;-74
2021/12/06 03:13:02;;;;;;;1.77;0.80;;;3.30;90.90;;;;;;5070822;28;20028;-74
2021/12/06 03:15:29;;;;;;;2.03;1.13;;;3.30;91.00;;;;;;5057769;28;20064;-74
2021/12/06 03:17:55;;;;;;;2.53;1.02;;;3.20;90.80;;;;;;5054244;28;20091;-74
2021/12/06 03:20:21;;;;;;;2.28;0.63;;;3.20;91.00;;;;;;5052418;28;20083;-74
2021/12/06 03:22:48;;;;;;;2.50;0.70;;;3.10;91.10;;;;;;5055528;28;20569;-74
2021/12/06 03:25:16;;;;;;;1.42;0.95;;;3.10;91.20;;;;;;5063798;28;20039;-74
2021/12/06 03:27:42;;;;;;;2.20;0.57;;;3.10;91.40;;;;;;5053730;28;20039;-74
2021/12/06 03:30:10;;;;;;;1.88;0.80;;;3.10;91.10;;;;;;5057486;28;20107;-75
2021/12/06 03:32:36;;;;;;;5.32;0.85;;;3.20;91.00;;;;;;5054141;28;20391;-74
2021/12/06 03:35:02;;;;;;;1.42;0.50;;;3.20;90.70;;;;;;5054133;28;20036;-74
2021/12/06 03:37:28;;;;;;;2.58;0.75;;;3.30;90.60;;;;;;5069326;28;20077;-74
2021/12/06 03:39:54;;;;;;;0.90;0.50;;;3.30;90.80;;;;;;5057017;28;20037;-74
2021/12/06 03:42:23;;;;;;;1.67;0.70;;;3.30;90.50;;;;;;5065410;28;20029;-74
2021/12/06 03:44:49;;;;;;;2.90;1.05;;;3.30;90.60;;;;;;5071373;28;20382;-74
2021/12/06 03:47:29;;;;;;;1.15;0.50;;;3.30;90.60;;;;;;5060242;28;20044;-75
2021/12/06 03:49:55;;;;;;;0.55;0.55;;;3.30;90.60;;;;;;5052573;28;20036;-75
2021/12/06 03:52:21;;;;;;;2.88;0.70;;;3.30;90.60;;;;;;5052143;28;20073;-75
2021/12/06 03:54:49;;;;;;;1.10;0.47;;;3.30;90.20;;;;;;5063459;28;20060;-74
2021/12/06 03:57:16;;;;;;;1.65;0.75;;;3.30;90.40;;;;;;5060886;28;20033;-75
2021/12/06 03:59:42;;;;;;;1.10;0.63;;;3.20;90.60;;;;;;5051534;28;20029;-74
2021/12/06 04:02:08;;;;;;;2.33;0.68;;;3.10;91.00;;;;;;5060119;28;20029;-74
2021/12/06 04:04:34;;;;;;;1.52;0.90;;;3.00;91.20;;;;;;5047919;28;20029;-74
2021/12/06 04:07:00;;;;;;;3.65;0.82;;;2.90;91.30;;;;;;5047530;28;20033;-73
2021/12/06 04:09:26;;;;;;;1.35;0.50;;;2.90;91.50;;;;;;5043912;28;20375;-73
2021/12/06 04:11:55;;;;;;;1.40;0.80;;;2.80;91.50;;;;;;5045016;28;20037;-73
2021/12/06 04:14:20;;;;;;;2.58;0.60;;;2.70;91.80;;;;;;5044421;28;20514;-73
2021/12/06 04:16:46;;;;;;;2.00;0.80;;;2.70;91.70;;;;;;5052162;28;20028;-74
2021/12/06 04:19:12;;;;;;;2.10;1.25;;;2.80;91.50;;;;;;5056206;28;20033;-73
2021/12/06 04:21:41;;;;;;;0.68;0.30;;;2.90;91.40;;;;;;5043234;28;20078;-73
2021/12/06 04:24:09;;;;;;;1.27;0.63;;;2.60;92.40;;;;;;5054569;28;20032;-74
2021/12/06 04:26:34;;;;;;;2.13;0.85;;;2.60;92.20;;;;;;5059193;28;20101;-73
2021/12/06 04:29:01;;;;;;;2.85;1.10;;;2.60;92.20;;;;;;5060237;28;20471;-74
2021/12/06 04:31:36;;;;;;;1.10;0.43;;;2.60;91.80;;;;;;5048480;28;20094;-73
2021/12/06 04:34:02;;;;;;;1.75;1.02;;;2.70;91.70;;;;;;5053590;28;20075;-73
2021/12/06 04:36:28;;;;;;;3.58;0.60;;;2.60;91.80;;;;;;5082334;28;20032;-74
2021/12/06 04:38:53;;;;;;;2.30;0.63;;;2.60;91.80;;;;;;5049271;28;20025;-73
2021/12/06 04:41:19;;;;;;;1.30;0.77;;;2.60;92.00;;;;;;5048031;28;20021;-73
2021/12/06 04:43:45;;;;;;;1.65;0.63;;;2.70;91.70;;;;;;5058961;28;20143;-73
2021/12/06 04:46:11;;;;;;;2.05;0.65;;;2.70;91.20;;;;;;5067957;28;20033;-73
2021/12/06 04:48:38;;;;;;;1.40;0.73;;;2.80;91.30;;;;;;5060170;28;20499;-74
2021/12/06 04:51:04;;;;;;;1.55;0.65;;;2.90;90.90;;;;;;5065560;28;20626;-73
2021/12/06 04:53:36;;;;;;;1.08;0.57;;;2.90;91.00;;;;;;5049887;28;20032;-73
2021/12/06 04:56:21;;;;;;;2.95;0.68;;;2.80;91.20;;;;;;5049493;28;20029;-73
2021/12/06 04:59:05;;;;;;;0.70;0.40;;;2.80;90.90;;;;;;5047169;28;20422;-73
2021/12/06 05:01:33;;;;;;;1.33;0.52;;;2.70;91.80;;;;;;5067565;28;20024;-73
2021/12/06 05:04:04;;;;;;;1.13;0.50;;;2.80;90.80;;;;;;5066215;28;20021;-73
2021/12/06 05:06:34;;;;;;;1.38;0.70;;;2.90;90.80;;;;;;5051217;28;20673;-73
2021/12/06 05:12:24;;;;;;;1.38;0.50;;;2.60;91.30;;;;;;5062180;28;20079;-73
2021/12/06 05:14:50;;;;;;;2.97;0.70;;;2.50;91.40;;;;;;5048038;28;20028;-73
2021/12/06 05:17:18;;;;;;;1.75;0.68;;;2.60;91.20;;;;;;5059583;28;20512;-74
2021/12/06 05:19:44;;;;;;;1.10;0.40;;;2.40;91.70;;;;;;5047593;28;20055;-73
2021/12/06 05:22:10;;;;;;;2.10;0.60;;;2.40;91.40;;;;;;5047457;28;20051;-73
2021/12/06 05:24:36;;;;;;;2.38;0.73;;;2.50;91.10;;;;;;5047463;28;20462;-73
2021/12/06 05:27:04;;;;;;;1.90;0.52;;;2.60;91.00;;;;;;5060901;28;20037;-73
2021/12/06 05:29:30;;;;;;;1.45;0.70;;;2.30;91.50;;;;;;5067618;28;20507;-73
2021/12/06 05:31:59;;;;;;;1.75;0.60;;;2.40;91.20;;;;;;5064919;28;20032;-73
2021/12/06 05:34:32;;;;;;;0.70;0.25;;;2.50;91.30;;;;;;5045964;28;20900;-73
2021/12/06 05:36:59;;;;;;;1.10;0.43;;;2.70;90.70;;;;;;5045542;28;20098;-73
2021/12/06 05:39:30;;;;;;;2.22;0.60;;;2.70;90.80;;;;;;5051119;28;20032;-73
2021/12/06 05:42:04;;;;;;;1.42;0.73;;;2.70;90.70;;;;;;5046509;28;20390;-73
2021/12/06 05:44:30;;;;;;;1.70;0.85;;;2.70;90.60;;;;;;5048375;28;20036;-73
2021/12/06 05:46:57;;;;;;;0.47;0.40;;;2.70;90.60;;;;;;5062268;28;20438;-73
2021/12/06 05:49:23;;;;;;;1.15;0.40;;;2.70;90.60;;;;;;5063196;28;20024;-73
2021/12/06 05:51:49;;;;;;;3.10;0.60;;;2.60;90.80;;;;;;5063130;28;20033;-73
2021/12/06 05:54:15;;;;;;;1.20;0.43;;;2.50;91.00;;;;;;5043502;28;20108;-73
2021/12/06 05:56:44;;;;;;;0.57;0.38;;;2.50;90.90;;;;;;5042881;28;20108;-73
2021/12/06 05:59:11;;;;;;;2.40;0.70;;;2.50;90.80;;;;;;5044240;28;20112;-74
2021/12/06 06:01:37;;;;;;;1.25;0.50;;;2.50;90.80;;;;;;5047016;28;20037;-73
2021/12/06 06:04:03;;;;;;;1.35;0.57;;;2.40;91.10;;;;;;5054170;28;20161;-73
2021/12/06 06:06:31;;;;;;;1.80;0.63;;;2.30;91.40;;;;;;5044999;28;20040;-73
2021/12/06 06:08:57;;;;;;;0.75;0.47;;;2.30;91.40;;;;;;5047759;28;20674;-73
2021/12/06 06:11:23;;;;;;;1.08;0.38;;;2.10;91.80;;;;;;5057608;28;20116;-73
2021/12/06 06:13:49;;;;;;;1.45;0.50;;;2.00;91.60;;;;;;5064946;28;20024;-73
2021/12/06 06:16:18;;;;;;;1.13;0.52;;;2.20;91.40;;;;;;5066130;28;20029;-73
2021/12/06 06:18:44;;;;;;;1.77;0.65;;;2.00;91.70;;;;;;5049919;28;20423;-73
2021/12/06 06:21:10;;;;;;;4.22;0.82;;;1.90;92.00;;;;;;5056089;28;20029;-73
2021/12/06 06:23:36;;;;;;;0.88;0.50;;;1.90;91.90;;;;;;5061248;28;20094;-73
2021/12/06 06:26:02;;;;;;;1.10;0.43;;;2.10;91.40;;;;;;5068492;28;20024;-73
2021/12/06 06:28:28;;;;;;;0.77;0.43;;;2.10;91.40;;;;;;5070212;28;20096;-73
2021/12/06 06:30:54;;;;;;;1.33;0.50;;;2.20;91.20;;;;;;5064698;28;20115;-73
2021/12/06 06:33:20;;;;;;;1.10;0.35;;;2.50;90.70;;;;;;5055591;28;20033;-74
2021/12/06 06:35:46;;;;;;;1.40;0.55;;;2.50;90.70;;;;;;5055023;28;20025;-74
2021/12/06 06:38:11;;;;;;;0.85;0.52;;;2.50;90.50;;;;;;5060775;28;20036;-72
2021/12/06 06:40:37;;;;;;;1.75;0.30;;;2.60;90.30;;;;;;5053039;28;20040;-73
2021/12/06 06:43:03;;;;;;;2.75;1.15;;;2.50;91.40;;;;;;5054998;28;20112;-73
2021/12/06 06:45:29;;;;;;;1.20;0.60;;;3.20;90.00;;;;;;5054893;28;20028;-72
2021/12/06 06:47:56;;;;;;;1.52;0.50;;;2.60;90.30;;;;;;5045635;28;20103;-73
2021/12/06 06:50:23;;;;;;;0.35;0.20;;;2.50;90.40;;;;;;5052949;28;20017;-73
2021/12/06 06:52:52;;;;;;;0.95;0.57;;;2.30;90.50;;;;;;5065066;28;20032;-73
2021/12/06 06:55:19;;;;;;;1.05;0.77;;;2.40;90.60;;;;;;5063700;28;20029;-73
2021/12/06 06:57:46;;;;;;;1.75;0.52;;;2.20;90.80;;;;;;5056697;28;20100;-73
2021/12/06 07:00:45;;;;;;;2.08;0.75;;;2.30;90.70;;;;;;5056411;28;20025;-73
2021/12/06 07:03:11;;;;;;;2.45;0.60;;;2.30;90.60;;;;;;5050012;28;20052;-72
2021/12/06 07:05:38;;;;;;;3.38;0.40;;;2.20;91.00;;;;;;5062574;28;20455;-73
2021/12/06 07:08:04;;;;;;;2.10;0.60;;;2.30;90.30;;;;;;5066481;28;20035;-73
2021/12/06 07:10:30;;;;;;;1.45;0.45;;;2.40;90.40;;;;;;5066662;28;20078;-73
2021/12/06 07:12:56;;;;;;;0.55;0.30;;;2.30;90.40;;;;;;5066177;28;20036;-73
2021/12/06 07:15:27;;;;;;;1.75;0.68;;;2.30;90.60;;;;;;5066493;28;20085;-73
2021/12/06 07:17:53;;;;;;;1.40;0.40;;;2.30;90.60;;;;;;5066081;28;20032;-73
2021/12/06 07:20:20;;;;;;;1.33;0.50;;;2.30;90.80;;;;;;5065918;28;20592;-73
2021/12/06 07:22:47;;;;;;;1.00;0.40;;;2.40;90.40;;;;;;5066188;28;20024;-73
2021/12/06 07:25:15;;;;;;;2.13;0.80;;;2.30;90.60;;;;;;5065518;28;20021;-73
2021/12/06 07:27:42;;;;;;;1.60;0.50;;;2.30;90.50;;;;;;5066264;28;20056;-73
2021/12/06 07:30:09;;;;;;;1.17;0.40;;;2.40;90.30;;;;;;5066168;28;20025;-73
2021/12/06 07:32:35;;;;;;;3.88;0.93;;;2.40;90.40;;;;;;5064339;28;20033;-73
2021/12/06 07:35:02;;;;;;;1.15;0.40;;;2.40;90.30;;;;;;5065869;28;20039;-73
2021/12/06 07:37:28;;;;;;;1.92;0.63;;;2.40;90.40;;;;;;5065849;28;20112;-73
2021/12/06 07:39:53;;;;;;;1.25;0.60;;;2.40;90.50;;;;;;5066218;28;21139;-72
2021/12/06 07:42:19;;;;;;;2.38;0.68;;;2.40;90.50;;;;;;5065748;28;20032;-73
2021/12/06 07:44:45;;;;;;;1.40;0.65;;;2.40;90.30;;;;;;5060675;28;20091;-73
2021/12/06 07:47:12;;;;;;;0.73;0.30;;;2.40;90.30;;;;;;5065356;28;20567;-72
2021/12/06 07:49:39;;;;;;;3.53;0.82;;;2.40;90.40;;;;;;5064267;28;20036;-73
2021/12/06 07:52:06;;;;;;;1.35;0.47;;;2.40;90.20;;;;;;5051313;28;20190;-73
2021/12/06 07:54:33;;;;;;;3.47;1.10;;;2.50;90.10;;;;;;5057607;28;20131;-73
2021/12/06 07:57:00;;;;;;;1.02;0.55;;;2.40;90.30;;;;;;5063267;28;20024;-73
2021/12/06 07:59:27;;;;;;;1.35;0.47;;;2.50;90.10;;;;;;5064079;28;20028;-73
2021/12/06 08:01:52;;;;;;;1.15;0.55;;;2.50;89.80;;;;;;5063777;28;20027;-73
2021/12/06 08:04:18;;;;;;;0.68;0.38;;;2.60;89.40;;;;;;5064329;28;20020;-73
2021/12/06 08:06:45;;;;;;;1.23;0.50;;;2.60;89.30;;;;;;5065141;28;20548;-73
2021/12/06 08:09:11;;;;;;;1.30;0.80;;;2.70;89.20;;;;;;5064985;28;20397;-73
2021/12/06 08:11:36;;;;;;;2.05;0.40;;;2.70;89.00;;;;;;5064559;28;20067;-73
2021/12/06 08:14:03;;;;;;;2.28;0.75;;;2.70;89.00;;;;;;5065379;28;20509;-73
2021/12/06 08:16:35;;;;;;;2.45;0.73;;;2.80;88.30;;;;;;5064736;28;20023;-73
2021/12/06 08:19:00;;;;;;;2.15;0.77;;;2.80;88.50;;;;;;5064771;28;20039;-74
2021/12/06 08:21:27;;;;;;;1.88;0.60;;;2.90;87.80;;;;;;5065168;28;20024;-73
2021/12/06 08:23:56;;;;;;;0.98;0.50;;;2.80;88.30;;;;;;5065357;28;20043;-73
2021/12/06 08:26:25;;;;;;;1.50;0.73;;;2.80;88.60;;;;;;5065350;28;20119;-73
2021/12/06 08:28:51;;;;;;;1.25;0.50;;;2.80;88.60;;;;;;5065159;28;20521;-74
2021/12/06 08:31:22;;;;;;;2.47;0.73;;;2.80;88.60;;;;;;5064842;28;20036;-74
2021/12/06 08:33:51;;;;;;;4.65;0.50;;;2.90;88.10;;;;;;5065599;28;20079;-73
2021/12/06 08:36:19;;;;;;;2.50;1.10;;;2.90;87.80;;;;;;5065428;28;20661;-73
2021/12/06 08:38:47;;;;;;;0.80;0.57;;;2.80;88.30;;;;;;5064029;28;20020;-74
2021/12/06 08:41:17;;;;;;;2.75;0.70;;;2.90;87.90;;;;;;5064935;28;20491;-73
2021/12/06 08:43:44;;;;;;;4.40;0.93;;;2.80;88.30;;;;;;5065166;28;20035;-73
2021/12/06 08:46:16;;;;;;;0.70;0.32;;;2.80;88.40;;;;;;5062446;28;20048;-73
2021/12/06 08:48:43;;;;;;;1.65;0.57;;;2.70;88.90;;;;;;5064490;28;20021;-74
2021/12/06 08:51:35;;;;;;;1.48;0.60;;;2.70;88.40;;;;;;5065350;28;20036;-74
2021/12/06 08:54:04;;;;;;;2.13;0.60;;;2.70;88.60;;;;;;5039046;28;20425;-73
2021/12/06 08:56:31;;;;;;;1.02;0.50;;;2.60;89.10;;;;;;5064750;28;20474;-73
2021/12/06 08:59:00;;;;;;;4.22;1.02;;;2.70;88.50;;;;;;5063657;28;20017;-74
2021/12/06 09:01:27;;;;;;;3.60;2.17;;;2.80;88.70;;;;;;5064601;28;20028;-73
2021/12/06 09:03:53;;;;;;;3.08;0.95;;;2.80;88.50;;;;;;5064737;28;20028;-74
2021/12/06 09:06:19;;;;;;;2.15;0.88;;;2.80;87.90;;;;;;5064802;28;20043;-73
2021/12/06 09:08:46;;;;;;;3.17;1.13;;;2.80;88.20;;;;;;5064901;28;20063;-73
2021/12/06 09:11:12;;;;;;;6.07;0.93;;;2.90;87.30;;;;;;5064548;28;20032;-73
2021/12/06 09:13:39;;;;;;;1.75;0.70;;;2.90;87.40;;;;;;5064522;28;20166;-74
2021/12/06 09:16:07;;;;;;;1.55;0.45;;;2.90;87.30;;;;;;5064479;28;20044;-73
2021/12/06 09:18:37;;;;;;;1.23;0.73;;;2.90;87.50;;;;;;5064398;28;20021;-73
2021/12/06 09:21:06;;;;;;;1.73;0.60;;;3.10;87.10;;;;;;5064325;28;20021;-73
2021/12/06 09:23:32;;;;;;;3.22;0.93;;;3.30;85.70;;;;;;5064763;28;20036;-73
2021/12/06 09:25:58;;;;;;;1.90;0.68;;;3.40;84.50;;;;;;5064539;28;20023;-74
2021/12/06 09:28:25;;;;;;;1.75;0.63;;;3.20;86.50;;;;;;5063120;28;20453;-73
2021/12/06 09:30:51;;;;;;;1.65;0.68;;;3.50;84.80;;;;;;5063445;28;20052;-73
2021/12/06 09:33:18;;;;;;;0.95;0.43;;;3.50;84.50;;;;;;5063398;28;20046;-73
2021/12/06 09:35:48;;;;;;;2.20;0.82;;;3.60;84.10;;;;;;5064073;28;20020;-73
2021/12/06 09:38:18;;;;;;;1.05;0.50;;;3.70;83.40;;;;;;5046321;28;20016;-73
2021/12/06 09:40:47;;;;;;;1.70;0.70;;;3.80;82.80;;;;;;5063853;28;20359;-74
2021/12/06 09:43:15;;;;;;;1.05;0.47;;;3.80;83.10;;;;;;5063908;28;20025;-73
2021/12/06 09:45:43;;;;;;;1.63;0.80;;;3.80;83.30;;;;;;5062569;28;20053;-74
2021/12/06 09:48:12;;;;;;;1.75;0.50;;;3.80;83.10;;;;;;5062829;28;20063;-73
2021/12/06 09:50:49;;;;;;;1.45;0.70;;;3.80;83.50;;;;;;5062982;28;20035;-73
2021/12/06 09:53:19;;;;;;;1.55;0.65;;;3.80;83.10;;;;;;5062370;28;20035;-73
2021/12/06 09:55:48;;;;;;;2.95;0.73;;;3.80;82.80;;;;;;5062401;28;20024;-73
2021/12/06 09:58:14;;;;;;;3.95;1.00;;;3.90;82.80;;;;;;5044173;28;20039;-73
2021/12/06 10:00:48;;;;;;;0.85;0.38;;;4.00;82.60;;;;;;5062298;28;20013;-73
2021/12/06 10:03:18;;;;;;;3.53;0.90;;;4.10;82.00;;;;;;5062765;28;20025;-73
2021/12/06 10:05:44;;;;;;;1.20;0.50;;;4.10;81.30;;;;;;5063499;28;20078;-73
2021/12/06 10:08:10;;;;;;;2.10;0.70;;;4.10;81.50;;;;;;5064004;28;20028;-74
2021/12/06 10:10:36;;;;;;;2.13;0.40;;;4.20;81.00;;;;;;5064033;28;20922;-73
2021/12/06 10:13:03;;;;;;;1.70;0.52;;;4.30;80.20;;;;;;5064163;28;20024;-73
2021/12/06 10:15:30;;;;;;;1.17;0.50;;;4.30;80.80;;;;;;5063721;28;20047;-73
2021/12/06 10:17:59;;;;;;;0.60;0.32;;;4.20;81.40;;;;;;5062464;28;20056;-73
2021/12/06 10:20:26;;;;;;;1.35;0.50;;;4.30;80.80;;;;;;5062656;28;20024;-73
2021/12/06 10:22:54;;;;;;;2.30;1.38;;;4.30;80.90;;;;;;5062900;28;20035;-73
2021/12/06 10:25:21;;;;;;;1.80;0.57;;;4.30;81.40;;;;;;5063238;28;20052;-73
2021/12/06 10:27:55;;;;;;;1.17;0.73;;;4.40;79.80;;;;;;5063577;28;20566;-74
2021/12/06 10:30:22;;;;;;;1.48;0.65;;;4.60;80.10;;;;;;5063744;28;20033;-73
2021/12/06 10:32:48;;;;;;;1.65;0.63;;;4.60;80.40;;;;;;5063585;28;20112;-73
2021/12/06 10:35:16;;;;;;;2.53;0.68;;;4.60;79.90;;;;;;5063835;28;20203;-74
2021/12/06 10:37:46;;;;;;;3.08;0.70;;;4.60;81.40;;;;;;5063671;28;20104;-73
2021/12/06 10:40:40;;;;;;;3.05;0.80;;;4.70;81.30;;;;;;5063751;28;20557;-73
2021/12/06 10:43:09;;;;;;;2.40;1.00;;;4.80;80.70;;;;;;5061871;28;20111;-73
2021/12/06 10:45:44;;;;;;;2.00;0.98;;;5.00;79.90;;;;;;5063234;28;20048;-73
2021/12/06 10:48:18;;;;;;;1.65;0.68;;;5.00;80.40;;;;;;5062040;28;20040;-73
2021/12/06 10:50:50;;;;;;;3.45;0.70;;;5.00;79.80;;;;;;5063255;28;20039;-73
2021/12/06 10:53:18;;;;;;;1.67;0.80;;;5.10;81.00;;;;;;5061088;28;20028;-73
2021/12/06 10:55:44;;;;;;;2.00;0.75;;;5.20;80.20;;;;;;5043737;28;20561;-73
2021/12/06 10:58:16;;;;;;;3.08;0.80;;;5.30;80.40;;;;;;5061938;28;20444;-73
2021/12/06 11:00:52;;;;;;;1.92;0.68;;;5.40;79.50;;;;;;5062973;28;20021;-73
2021/12/06 11:03:26;;;;;;;1.40;0.35;;;5.50;78.60;;;;;;5065286;28;20035;-73
2021/12/06 11:06:01;;;;;;;1.42;0.88;;;5.60;77.20;;;;;;5065935;28;20028;-73
2021/12/06 11:08:27;;;;;;;2.08;0.68;;;5.60;78.50;;;;;;5067095;28;20055;-73
2021/12/06 11:10:57;;;;;;;1.60;0.77;;;5.70;78.80;;;;;;5066831;28;20115;-73
2021/12/06 11:13:26;;;;;;;2.13;0.50;;;5.90;79.80;;;;;;5067184;28;20021;-73
2021/12/06 11:16:05;;;;;;;4.93;0.70;;;5.90;77.60;;;;;;5066859;28;20119;-73
2021/12/06 11:18:32;;;;;;;4.28;0.77;;;5.90;79.00;;;;;;5067013;28;20028;-73
2021/12/06 11:20:58;;;;;;;3.92;1.40;;;5.80;79.00;;;;;;5067136;28;20032;-73
2021/12/06 11:23:24;;;;;;;2.83;0.75;;;5.80;78.50;;;;;;5066800;28;20025;-73
2021/12/06 11:25:58;;;;;;;2.35;0.75;;;5.90;77.90;;;;;;5066634;28;20044;-73
2021/12/06 11:28:30;;;;;;;1.97;0.50;;;5.90;78.30;;;;;;5066355;28;20035;-73
2021/12/06 11:31:04;;;;;;;3.05;0.75;;;5.90;78.60;;;;;;5066555;28;20154;-73
2021/12/06 11:33:34;;;;;;;5.82;1.33;;;5.90;81.20;;;;;;5066194;28;20032;-73
2021/12/06 11:36:01;;;;;;;2.42;1.20;;;5.70;82.20;;;;;;5066603;28;20024;-73
2021/12/06 11:38:29;;;;;;;3.65;1.15;;;5.60;82.90;;;;;;5065769;28;20560;-73
2021/12/06 11:40:59;;;;;;;2.35;0.95;;;5.70;82.60;;;;;;5066366;28;20016;-73
2021/12/06 11:43:26;;;;;;;2.95;1.00;;;5.80;82.30;;;;;;5047888;28;20645;-73
2021/12/06 11:45:57;;;;;;;2.13;0.95;;;5.80;82.80;;;;;;5066071;28;20215;-73
2021/12/06 11:48:29;;;;;;;2.22;1.02;;;5.80;81.80;;;;;;5064491;28;20374;-73
2021/12/06 11:51:00;;;;;;;4.90;1.20;;;5.80;83.20;;;;;;5066163;28;20115;-73
2021/12/06 11:53:36;;;;;;;2.65;1.60;;;5.70;83.40;;;;;;5064601;28;20028;-73
2021/12/06 11:56:07;;;;;;;1.88;0.90;;;5.80;83.00;;;;;;5066812;28;20082;-73
2021/12/06 11:58:35;;;;;;;2.67;0.98;;;5.80;82.40;;;;;;5067112;28;20052;-73
2021/12/06 12:01:09;;;;;;;3.70;1.40;;;5.90;82.80;;;;;;5067595;28;20024;-73
2021/12/06 12:03:37;;;;;;;4.00;1.10;;;5.90;82.30;;;;;;5066815;28;20032;-73
2021/12/06 12:06:21;;;;;;;3.03;1.10;;;5.90;81.00;;;;;;5067112;28;20053;-73
2021/12/06 12:09:11;;;;;;;3.15;1.20;;;6.00;81.60;;;;;;5068860;28;20025;-73
2021/12/06 12:12:12;;;;;;;2.80;0.90;;;6.10;82.10;;;;;;5068510;28;20047;-74
2021/12/06 12:14:54;;;;;;;2.22;1.00;;;6.20;82.40;;;;;;5068847;28;20580;-75
2021/12/06 12:17:23;;;;;;;3.90;2.78;;;6.20;80.40;;;;;;5066427;28;20589;-74
2021/12/06 12:19:52;;;;;;;2.38;1.02;;;6.20;79.10;;;;;;5065157;28;20104;-74
2021/12/06 12:22:19;;;;;;;2.65;0.70;;;6.30;80.20;;;;;;5064791;28;20029;-75
2021/12/06 12:24:49;;;;;;;2.30;0.70;;;6.40;80.30;;;;;;5064739;28;20027;-75
2021/12/06 12:29:41;;;;;;;1.05;0.60;;;6.40;79.50;;;;;;5064660;28;20556;-74
2021/12/06 12:32:07;;;;;;;1.65;0.60;;;6.50;80.60;;;;;;5064681;28;20040;-75
2021/12/06 12:34:37;;;;;;;3.35;0.60;;;6.50;78.30;;;;;;5064532;28;20153;-75
2021/12/06 12:37:06;;;;;;;3.85;0.75;;;6.50;79.80;;;;;;5064770;28;20016;-75
2021/12/06 12:39:33;;;;;;;4.97;1.17;;;6.60;79.10;;;;;;5064663;28;20029;-75
2021/12/06 12:42:03;;;;;;;1.70;0.63;;;6.60;79.80;;;;;;5064847;28;20478;-75
2021/12/06 12:44:50;;;;;;;1.75;0.68;;;6.50;79.10;;;;;;5064083;28;20064;-75
2021/12/06 12:47:23;;;;;;;2.15;0.85;;;6.50;79.50;;;;;;5064130;28;20409;-74
2021/12/06 12:49:57;;;;;;;2.55;0.98;;;6.60;79.40;;;;;;5044515;28;20039;-75
2021/12/06 12:52:48;;;;;;;2.63;0.60;;;6.70;78.40;;;;;;5063859;28;20033;-75
2021/12/06 12:55:23;;;;;;;2.70;1.38;;;6.70;78.80;;;;;;5062981;28;20052;-74
2021/12/06 12:57:50;;;;;;;2.40;1.10;;;6.70;79.70;;;;;;5062431;28;20029;-75
2021/12/06 13:00:20;;;;;;;1.70;0.80;;;6.80;79.90;;;;;;5062612;28;20024;-75
2021/12/06 13:02:47;;;;;;;3.22;0.90;;;6.70;79.20;;;;;;5062348;28;20024;-75
2021/12/06 13:05:16;;;;;;;1.55;0.77;;;6.80;78.30;;;;;;5063279;28;20086;-75
2021/12/06 13:07:42;;;;;;;1.75;0.60;;;6.90;78.00;;;;;;5062349;28;20047;-75
2021/12/06 13:10:23;;;;;;;1.48;0.60;;;7.00;76.60;;;;;;5062451;28;20492;-75
2021/12/06 13:13:26;;;;;;;1.50;0.70;;;7.10;76.00;;;;;;5064136;28;20474;-75
2021/12/06 13:18:37;;;;;;;2.17;0.65;;;7.10;77.20;;;;;;5062043;28;20032;-75
2021/12/06 13:21:52;;;;;;;1.85;0.70;;;7.20;75.20;;;;;;5062567;28;20016;-74
2021/12/06 13:24:18;;;;;;;1.05;0.60;;;7.20;75.80;;;;;;4999678;28;20032;-75
2021/12/06 13:26:52;;;;;;;4.95;0.70;;;7.20;76.30;;;;;;5055085;28;20040;-75
2021/12/06 13:29:25;;;;;;;4.60;0.90;;;7.20;76.50;;;;;;5062287;28;20032;-75
2021/12/06 13:31:52;;;;;;;2.60;0.90;;;7.20;76.80;;;;;;5062068;28;20036;-75
2021/12/06 13:34:36;;;;;;;0.80;0.55;;;7.20;76.60;;;;;;5063431;28;20056;-75